MV Scf Alpine — A8XQ2 — position and weather

sailwx.info

Track history (hours):
 
Tides and Currents Weather Stations Pressure Air Temp Water Temp Dewpoint Dewpoint Depression Visibility Wind Speed Wind Dir Waves Ship Positions

MV Scf Alpine

Last reported at 2015-Mar-29 07:33 UTC. Time now 2015-Mar-31 22:04 UTC.
Position N 29°21' W 094°43'.

Length 229 m; draft 11.3 m.

Type: Tanker. MMSI: 636014957.

Date/timePositionNaut miles runAvg speedWind from/ knotsBaromVisibWave heightAir tempDewpointWater temp
2015-Mar-29 07:33N 29°21' W 094°43'1010.3
2015-Mar-29 06:33N 29°28' W 094°51'1010.5
2015-Mar-29 05:33N 29°37' W 094°57'9 8.5
2015-Mar-29 04:33N 29°44' W 095°03'5 5.2
2015-Mar-29 03:33N 29°44' W 095°09'4 0.1
2015-Mar-27 21:32N 29°43' W 095°14'0 0.0
2015-Mar-27 20:32N 29°43' W 095°14'0 0.0
2015-Mar-27 19:32N 29°43' W 095°14'0 0.0
2015-Mar-27 18:32N 29°43' W 095°14'0 0.0
2015-Mar-27 17:32N 29°43' W 095°14'0 0.0
2015-Mar-27 16:32N 29°43' W 095°14'0 0.0
2015-Mar-27 15:32N 29°43' W 095°14'0 0.0
2015-Mar-27 14:32N 29°43' W 095°14'0 0.0
2015-Mar-27 13:32N 29°43' W 095°14'0 0.0
2015-Mar-25 19:08N 29°43' W 095°14'0 0.0
2015-Mar-25 18:23N 29°43' W 095°14'0 0.0
2015-Mar-25 17:29N 29°43' W 095°14'0 0.0
2015-Mar-25 16:29N 29°43' W 095°14'0 0.0
2015-Mar-25 15:32N 29°43' W 095°14'0 0.0
2015-Mar-25 14:29N 29°43' W 095°14'0 0.0
2015-Mar-25 13:32N 29°43' W 095°14'0 0.0
2015-Mar-25 03:31N 29°43' W 095°14'4 4.3
2015-Mar-25 02:33N 29°45' W 095°10'5 5.2
2015-Mar-25 01:33N 29°45' W 095°04'8 8.5
2015-Mar-25 00:33N 29°38' W 094°58'1211.8
2015-Mar-24 23:33N 29°28' W 094°51'  
Track history (hours):
 
Tides and Currents Weather Stations Pressure Air Temp Water Temp Dewpoint Dewpoint Depression Visibility Wind Speed Wind Dir Waves Ship Positions

MV Scf Alpine

Last reported at 2015-Mar-29 07:33 UTC. Time now 2015-Mar-31 22:04 UTC.
Position N 29°21' W 094°43'.

Length 229 m; draft 11.3 m.

Type: Tanker. MMSI: 636014957.

Date/timePositionNaut miles runAvg speedWind from/ knotsBaromVisibWave heightAir tempDewpointWater temp
2015-Mar-29 07:33N 29°21' W 094°43'1010.3
2015-Mar-29 06:33N 29°28' W 094°51'1010.5
2015-Mar-29 05:33N 29°37' W 094°57'9 8.5
2015-Mar-29 04:33N 29°44' W 095°03'5 5.2
2015-Mar-29 03:33N 29°44' W 095°09'4 0.1
2015-Mar-27 21:32N 29°43' W 095°14'0 0.0
2015-Mar-27 20:32N 29°43' W 095°14'0 0.0
2015-Mar-27 19:32N 29°43' W 095°14'0 0.0
2015-Mar-27 18:32N 29°43' W 095°14'0 0.0
2015-Mar-27 17:32N 29°43' W 095°14'0 0.0
2015-Mar-27 16:32N 29°43' W 095°14'0 0.0
2015-Mar-27 15:32N 29°43' W 095°14'0 0.0
2015-Mar-27 14:32N 29°43' W 095°14'0 0.0
2015-Mar-27 13:32N 29°43' W 095°14'0 0.0
2015-Mar-25 19:08N 29°43' W 095°14'0 0.0
2015-Mar-25 18:23N 29°43' W 095°14'0 0.0
2015-Mar-25 17:29N 29°43' W 095°14'0 0.0
2015-Mar-25 16:29N 29°43' W 095°14'0 0.0
2015-Mar-25 15:32N 29°43' W 095°14'0 0.0
2015-Mar-25 14:29N 29°43' W 095°14'0 0.0
2015-Mar-25 13:32N 29°43' W 095°14'0 0.0
2015-Mar-25 03:31N 29°43' W 095°14'4 4.3
2015-Mar-25 02:33N 29°45' W 095°10'5 5.2
2015-Mar-25 01:33N 29°45' W 095°04'8 8.5
2015-Mar-25 00:33N 29°38' W 094°58'1211.8
2015-Mar-24 23:33N 29°28' W 094°51'  

Dump ship's entire track history